createdAt,value
2018-06-11T04:01:13.598Z,18.23
2018-06-11T04:03:40.611Z,18.90
2018-06-11T04:06:07.614Z,20.00
2018-06-11T04:08:34.614Z,19.57
2018-06-11T04:11:01.707Z,20.37
2018-06-11T04:13:28.655Z,20.80
2018-06-11T04:15:55.659Z,21.67
2018-06-11T04:18:22.658Z,20.60
2018-06-11T04:20:49.655Z,18.30
2018-06-11T04:23:16.638Z,21.20
2018-06-11T04:25:43.634Z,19.30
2018-06-11T04:28:10.642Z,19.70
2018-06-11T04:30:37.673Z,21.50
2018-06-11T04:33:04.809Z,20.23
2018-06-11T04:35:31.815Z,22.17
2018-06-11T04:37:58.866Z,20.37
2018-06-11T04:40:25.885Z,20.83
2018-06-11T04:42:52.910Z,20.13
2018-06-11T04:45:19.960Z,22.00
2018-06-11T04:47:46.942Z,21.40
2018-06-11T04:50:13.951Z,20.47
2018-06-11T04:52:41.029Z,21.20
2018-06-11T04:55:08.052Z,21.03
2018-06-11T04:57:35.050Z,21.80
2018-06-11T05:00:02.073Z,20.67
2018-06-11T05:02:29.166Z,21.23
2018-06-11T05:04:56.166Z,20.73
2018-06-11T05:07:23.175Z,21.97
2018-06-11T05:09:50.201Z,20.93
2018-06-11T05:12:17.207Z,21.07
2018-06-11T05:14:44.218Z,20.20
2018-06-11T05:17:11.250Z,20.63
2018-06-11T05:19:38.275Z,21.57
2018-06-11T05:22:05.301Z,20.57
2018-06-11T05:24:32.570Z,20.20
2018-06-11T05:26:59.609Z,20.47
2018-06-11T05:29:26.643Z,20.17
2018-06-11T05:31:53.655Z,20.83
2018-06-11T05:34:20.659Z,19.77
2018-06-11T05:36:47.806Z,19.17
2018-06-11T05:39:14.822Z,17.90
2018-06-11T05:41:41.889Z,18.00
2018-06-11T05:44:08.919Z,18.00
2018-06-11T05:46:35.941Z,18.73
2018-06-11T05:49:02.953Z,16.63
2018-06-11T05:51:30.020Z,18.10
2018-06-11T05:53:58.424Z,15.60
2018-06-11T05:56:25.965Z,17.20
2018-06-11T05:58:53.098Z,18.07
2018-06-11T06:01:20.074Z,16.73
2018-06-11T06:03:47.043Z,17.30
2018-06-11T06:06:23.307Z,17.03
2018-06-11T06:08:50.479Z,16.53
2018-06-11T06:11:23.063Z,15.30
2018-06-11T06:13:50.047Z,16.07
2018-06-11T06:16:17.018Z,16.10
2018-06-11T06:18:43.998Z,15.43
2018-06-11T06:21:10.982Z,15.80
2018-06-11T06:23:37.970Z,16.47
2018-06-11T06:26:04.933Z,15.27
2018-06-11T06:28:31.922Z,16.63
2018-06-11T06:30:58.885Z,15.80
2018-06-11T06:33:25.866Z,17.33
2018-06-11T06:35:52.864Z,14.83
2018-06-11T06:38:19.881Z,14.90
2018-06-11T06:40:46.925Z,16.57
2018-06-11T06:43:14.844Z,15.00
2018-06-11T06:45:41.823Z,16.00
2018-06-11T06:48:08.801Z,14.87
2018-06-11T06:50:35.765Z,15.70
2018-06-11T06:53:02.754Z,14.80
2018-06-11T06:55:29.734Z,15.90
2018-06-11T06:57:56.785Z,13.67
2018-06-11T07:00:23.765Z,15.50
2018-06-11T07:02:50.778Z,14.57
2018-06-11T07:05:17.778Z,15.90
2018-06-11T07:07:44.738Z,15.57
2018-06-11T07:10:11.716Z,14.20
2018-06-11T07:12:38.710Z,13.87
2018-06-11T07:15:05.687Z,14.17
2018-06-11T07:17:32.658Z,14.90
2018-06-11T07:19:59.799Z,14.37
2018-06-11T07:22:27.014Z,15.00
2018-06-11T07:24:54.027Z,13.73
2018-06-11T07:27:21.048Z,15.63
2018-06-11T07:29:48.138Z,14.00
2018-06-11T07:32:15.226Z,15.00
2018-06-11T07:34:42.278Z,14.40
2018-06-11T07:37:09.315Z,15.70
2018-06-11T07:39:36.454Z,15.07
2018-06-11T07:42:03.486Z,15.43
2018-06-11T07:44:30.502Z,14.07
2018-06-11T07:46:57.597Z,16.80
2018-06-11T07:49:24.737Z,14.20
2018-06-11T07:51:51.717Z,15.50
2018-06-11T07:54:18.709Z,15.53
2018-06-11T07:56:45.683Z,16.30
2018-06-11T07:59:12.651Z,17.20
2018-06-11T08:01:39.646Z,15.40
2018-06-11T08:04:06.625Z,17.27
2018-06-11T08:06:33.612Z,15.23
2018-06-11T08:09:00.602Z,16.20
2018-06-11T08:11:27.596Z,14.33
2018-06-11T08:13:54.573Z,15.03
2018-06-11T08:16:21.570Z,14.77
2018-06-11T08:18:48.550Z,16.20
2018-06-11T08:21:15.542Z,16.27
2018-06-11T08:23:42.513Z,16.53
2018-06-11T08:26:09.546Z,15.30
2018-06-11T08:28:36.539Z,16.27
2018-06-11T08:31:03.560Z,16.20
2018-06-11T08:33:30.553Z,15.83
2018-06-11T08:35:57.586Z,14.97
2018-06-11T08:38:24.546Z,15.10
2018-06-11T08:40:51.526Z,16.40
2018-06-11T08:43:18.548Z,15.20
2018-06-11T08:45:45.518Z,14.33
2018-06-11T08:48:12.509Z,16.80
2018-06-11T08:50:39.477Z,15.03
2018-06-11T08:53:06.465Z,15.10
2018-06-11T08:55:33.449Z,14.90
2018-06-11T08:58:00.433Z,14.70
2018-06-11T09:00:27.413Z,16.47
2018-06-11T09:02:54.402Z,15.50
2018-06-11T09:05:21.396Z,14.50
2018-06-11T09:07:48.398Z,14.83
2018-06-11T09:10:15.390Z,13.77
2018-06-11T09:12:42.374Z,12.87
2018-06-11T09:15:09.370Z,13.03
2018-06-11T09:17:36.375Z,11.63
2018-06-11T09:20:03.386Z,13.70
2018-06-11T09:22:30.381Z,13.40
2018-06-11T09:24:57.402Z,14.10
2018-06-11T09:27:24.390Z,13.73
2018-06-11T09:29:51.390Z,14.23
2018-06-11T09:32:18.398Z,14.00
2018-06-11T09:34:45.405Z,13.03
2018-06-11T09:37:12.394Z,14.53
2018-06-11T09:39:39.392Z,12.90
2018-06-11T09:42:06.387Z,12.83
2018-06-11T09:44:33.378Z,13.03
2018-06-11T09:47:00.382Z,12.63
2018-06-11T09:49:27.358Z,11.10
2018-06-11T09:51:54.356Z,11.20
2018-06-11T09:54:21.342Z,11.80
2018-06-11T09:56:48.354Z,12.50
2018-06-11T09:59:15.343Z,12.50
2018-06-11T10:01:42.335Z,12.20
2018-06-11T10:04:09.325Z,12.27
2018-06-11T10:06:36.314Z,12.50
2018-06-11T10:09:06.324Z,11.30
2018-06-11T10:11:33.318Z,11.30
2018-06-11T10:14:00.302Z,12.33
2018-06-11T10:16:27.369Z,6.33
2018-06-11T10:18:54.353Z,8.20
2018-06-11T10:21:21.351Z,6.40
2018-06-11T10:23:48.343Z,6.70
2018-06-11T10:26:15.341Z,4.07
2018-06-11T10:28:42.313Z,7.50
2018-06-11T10:31:09.294Z,5.33
2018-06-11T10:33:36.275Z,14.40
2018-06-11T10:36:03.241Z,7.30
2018-06-11T10:38:30.221Z,8.07
2018-06-11T10:40:57.181Z,6.17
2018-06-11T10:43:24.162Z,7.20
2018-06-11T10:45:51.129Z,7.57
2018-06-11T10:48:18.135Z,8.80
2018-06-11T10:50:45.117Z,7.30
2018-06-11T10:53:12.110Z,10.30
2018-06-11T10:55:39.093Z,8.60
2018-06-11T10:58:06.147Z,7.20
2018-06-11T11:00:33.135Z,8.93
2018-06-11T11:03:00.130Z,8.03
2018-06-11T11:05:27.110Z,9.07
2018-06-11T11:07:54.102Z,7.80
2018-06-11T11:10:21.097Z,7.73
2018-06-11T11:12:48.062Z,10.03
2018-06-11T11:15:15.062Z,6.70
2018-06-11T11:17:42.046Z,6.40
2018-06-11T11:20:09.041Z,5.40
2018-06-11T11:22:36.027Z,7.37
2018-06-11T11:25:03.018Z,4.80
2018-06-11T11:27:30.012Z,6.83
2018-06-11T11:29:57.005Z,3.90
2018-06-11T11:32:23.994Z,4.37
2018-06-11T11:34:51.001Z,4.17
2018-06-11T11:37:17.989Z,3.93
2018-06-11T11:39:44.989Z,5.40
2018-06-11T11:42:11.973Z,5.90
2018-06-11T11:44:39.003Z,3.30
2018-06-11T11:47:06.010Z,3.87
2018-06-11T11:49:33.030Z,3.67
2018-06-11T11:52:00.062Z,4.20
2018-06-11T11:54:27.078Z,4.53
2018-06-11T11:56:54.094Z,5.33
2018-06-11T11:59:21.086Z,4.03
2018-06-11T12:01:48.130Z,3.60
2018-06-11T12:04:15.112Z,7.27
2018-06-11T12:06:42.125Z,4.43
2018-06-11T12:09:09.132Z,4.43
2018-06-11T12:11:36.170Z,4.10
2018-06-11T12:14:03.226Z,4.30
2018-06-11T12:16:30.278Z,5.00
2018-06-11T12:18:57.285Z,6.63
2018-06-11T12:21:24.297Z,5.07
2018-06-11T12:23:51.290Z,4.30
2018-06-11T12:26:18.309Z,4.03
2018-06-11T12:28:45.313Z,4.40
2018-06-11T12:31:12.302Z,5.23
2018-06-11T12:33:39.315Z,4.20
2018-06-11T12:36:06.310Z,4.60
2018-06-11T12:38:33.320Z,8.07
2018-06-11T12:41:00.309Z,4.40
2018-06-11T12:43:27.330Z,7.73
2018-06-11T12:45:54.341Z,5.90
2018-06-11T12:48:21.334Z,7.30
2018-06-11T12:50:48.326Z,5.83
2018-06-11T12:53:15.320Z,6.03
2018-06-11T12:55:42.313Z,6.30
2018-06-11T12:58:09.377Z,6.77
2018-06-11T13:00:36.370Z,7.10
2018-06-11T13:03:03.381Z,7.33
2018-06-11T13:05:30.374Z,6.90
2018-06-11T13:07:57.358Z,7.00
2018-06-11T13:10:24.337Z,7.80
2018-06-11T13:12:51.322Z,8.23
2018-06-11T13:15:18.315Z,10.77
2018-06-11T13:17:45.297Z,10.33
2018-06-11T13:20:12.285Z,12.23
2018-06-11T13:22:39.279Z,12.43
2018-06-11T13:25:06.245Z,16.77
2018-06-11T13:27:33.242Z,13.30
2018-06-11T13:30:00.217Z,14.40
2018-06-11T13:32:27.173Z,14.90
2018-06-11T13:34:54.167Z,14.90
2018-06-11T13:37:21.154Z,18.40
2018-06-11T13:39:48.129Z,16.80
2018-06-11T13:42:15.171Z,16.53
2018-06-11T13:44:42.216Z,18.47
2018-06-11T13:47:09.170Z,18.97
2018-06-11T13:49:36.213Z,20.00
2018-06-11T13:52:03.193Z,21.97
2018-06-11T13:54:30.171Z,23.40
2018-06-11T13:56:58.242Z,23.17
2018-06-11T13:59:25.250Z,24.73
2018-06-11T14:01:52.225Z,25.70
2018-06-11T14:04:19.445Z,25.87
2018-06-11T14:06:46.438Z,26.67
2018-06-11T14:09:13.414Z,28.40
2018-06-11T14:11:40.402Z,26.40
2018-06-11T14:14:07.570Z,28.43
2018-06-11T14:16:34.549Z,29.10
2018-06-11T14:19:01.531Z,30.50
2018-06-11T14:21:28.539Z,29.87
2018-06-11T14:23:55.506Z,31.90
2018-06-11T14:26:22.502Z,27.27
2018-06-11T14:28:49.753Z,28.13
2018-06-11T14:31:16.746Z,27.30
2018-06-11T14:33:43.722Z,25.90
2018-06-11T14:36:10.709Z,27.37
2018-06-11T14:38:37.769Z,28.60
2018-06-11T14:41:04.808Z,28.53
2018-06-11T14:43:31.908Z,27.87
2018-06-11T14:45:58.901Z,26.13
2018-06-11T14:48:25.889Z,25.90
2018-06-11T14:50:52.877Z,25.67
2018-06-11T14:53:20.172Z,24.10
2018-06-11T14:55:47.217Z,22.40
2018-06-11T14:58:14.271Z,20.90
2018-06-11T15:00:41.233Z,19.50
2018-06-11T15:03:08.407Z,18.60
2018-06-11T15:05:35.383Z,20.53
2018-06-11T15:08:02.587Z,20.50
2018-06-11T15:10:29.594Z,20.17
2018-06-11T15:12:56.639Z,19.43
2018-06-11T15:15:23.918Z,19.97
2018-06-11T15:17:50.927Z,19.80
2018-06-11T15:20:17.910Z,17.70
2018-06-11T15:22:44.973Z,19.17
2018-06-11T15:25:12.156Z,18.20
2018-06-11T15:27:39.167Z,19.40
2018-06-11T15:30:06.203Z,20.30
2018-06-11T15:32:37.563Z,20.93
2018-06-11T15:35:06.943Z,20.77
2018-06-11T15:37:33.958Z,20.40
2018-06-11T15:40:04.152Z,22.23
2018-06-11T15:42:34.239Z,22.47
2018-06-11T15:45:04.739Z,22.80
2018-06-11T15:47:33.915Z,22.73
2018-06-11T15:50:00.926Z,22.03
2018-06-11T15:52:27.929Z,22.87
2018-06-11T15:54:54.970Z,22.30
2018-06-11T15:57:21.958Z,22.67
2018-06-11T15:59:49.007Z,23.70
2018-06-11T16:02:16.002Z,25.10
2018-06-11T16:04:42.996Z,27.23
2018-06-11T16:07:09.989Z,26.67
2018-06-11T16:09:36.978Z,26.67
2018-06-11T16:12:04.002Z,24.53
2018-06-11T16:14:30.978Z,25.77
2018-06-11T16:16:57.989Z,24.83
2018-06-11T16:19:24.993Z,26.90
2018-06-11T16:21:51.977Z,25.47
2018-06-11T16:24:18.993Z,24.60
2018-06-11T16:26:45.986Z,27.13
2018-06-11T16:29:12.965Z,26.50
2018-06-11T16:31:45.629Z,25.27
2018-06-11T16:34:12.610Z,27.80
2018-06-11T16:36:39.616Z,27.43
2018-06-11T16:39:07.269Z,27.67
2018-06-11T16:41:34.259Z,29.37
2018-06-11T16:44:01.269Z,26.53
2018-06-11T16:46:28.274Z,26.63
2018-06-11T16:48:55.332Z,28.03
2018-06-11T16:51:22.266Z,30.43
2018-06-11T16:53:49.269Z,31.03
2018-06-11T16:56:16.277Z,32.90
2018-06-11T16:58:43.270Z,35.73
2018-06-11T17:01:10.274Z,33.97
2018-06-11T17:03:37.282Z,32.60
2018-06-11T17:06:04.301Z,34.93
2018-06-11T17:08:31.286Z,33.90
2018-06-11T17:10:58.330Z,34.87
2018-06-11T17:13:25.306Z,37.00
2018-06-11T17:15:52.328Z,38.30
2018-06-11T17:18:19.332Z,35.70
2018-06-11T17:20:46.321Z,35.87
2018-06-11T17:23:13.322Z,36.70
2018-06-11T17:25:40.311Z,36.73
2018-06-11T17:28:07.590Z,36.30
2018-06-11T17:30:34.578Z,34.93
2018-06-11T17:33:01.574Z,36.47
2018-06-11T17:35:28.582Z,35.03
2018-06-11T17:37:55.582Z,37.43
2018-06-11T17:40:22.574Z,36.87
2018-06-11T17:42:49.573Z,38.00
2018-06-11T17:45:16.562Z,38.67
2018-06-11T17:47:43.556Z,38.10
2018-06-11T17:50:10.534Z,37.83
2018-06-11T17:52:37.541Z,35.67
2018-06-11T17:55:04.522Z,40.90
2018-06-11T17:57:31.600Z,36.97
2018-06-11T17:59:58.521Z,34.60
2018-06-11T18:02:25.518Z,37.77
2018-06-11T18:04:52.556Z,42.63
2018-06-11T18:07:19.563Z,38.00
2018-06-11T18:09:46.566Z,38.27
2018-06-11T18:12:13.569Z,37.20
2018-06-11T18:14:40.643Z,41.27
2018-06-11T18:17:07.556Z,41.07
2018-06-11T18:19:34.563Z,39.13
2018-06-11T18:22:01.570Z,38.97
2018-06-11T18:24:28.567Z,38.23
2018-06-11T18:26:55.558Z,39.57
2018-06-11T18:29:22.564Z,40.83
2018-06-11T18:31:49.554Z,39.13
2018-06-11T18:34:16.542Z,40.07
2018-06-11T18:36:43.532Z,38.03
2018-06-11T18:39:10.546Z,43.70
2018-06-11T18:41:37.546Z,41.37
2018-06-11T18:44:04.547Z,44.37
2018-06-11T18:46:31.531Z,42.17
2018-06-11T18:48:58.535Z,42.77
2018-06-11T18:51:25.550Z,41.53
2018-06-11T18:53:52.553Z,43.47
2018-06-11T18:56:19.623Z,44.77
2018-06-11T18:58:46.617Z,40.40
2018-06-11T19:01:13.626Z,46.60
2018-06-11T19:03:40.614Z,45.30
2018-06-11T19:06:07.619Z,46.67
2018-06-11T19:08:34.603Z,44.90
2018-06-11T19:11:01.594Z,43.87
2018-06-11T19:13:28.584Z,42.63
2018-06-11T19:15:55.593Z,46.63
2018-06-11T19:18:22.574Z,45.13
2018-06-11T19:20:49.569Z,45.10
2018-06-11T19:23:17.134Z,44.37
2018-06-11T19:25:44.133Z,45.70
2018-06-11T19:28:11.320Z,43.40
2018-06-11T19:30:38.326Z,44.03
2018-06-11T19:33:05.365Z,44.70
2018-06-11T19:35:32.470Z,44.33
2018-06-11T19:37:59.405Z,46.27
2018-06-11T19:40:26.430Z,44.47
2018-06-11T19:42:53.476Z,45.60
2018-06-11T19:45:20.489Z,45.67
2018-06-11T19:47:47.545Z,43.80
2018-06-11T19:50:14.656Z,43.40
2018-06-11T19:52:41.592Z,42.70
2018-06-11T19:55:08.602Z,35.73
2018-06-11T19:57:35.638Z,31.07
2018-06-11T20:00:05.856Z,30.60
2018-06-11T20:02:32.903Z,29.43
2018-06-11T20:04:59.910Z,30.20
2018-06-11T20:07:26.930Z,29.50
2018-06-11T20:09:53.931Z,25.47
2018-06-11T20:12:20.967Z,27.03
2018-06-11T20:14:47.965Z,29.80
2018-06-11T20:17:15.084Z,30.47
2018-06-11T20:19:42.119Z,25.77
2018-06-11T20:22:09.106Z,25.60
2018-06-11T20:24:36.102Z,21.53
2018-06-11T20:27:03.093Z,22.80
2018-06-11T20:29:30.086Z,23.33
2018-06-11T20:31:57.065Z,23.40
2018-06-11T20:34:24.056Z,21.57
2018-06-11T20:36:51.038Z,21.20
2018-06-11T20:39:18.050Z,23.87
2018-06-11T20:41:45.032Z,23.80
2018-06-11T20:44:12.185Z,19.97
2018-06-11T20:46:41.024Z,19.87
2018-06-11T20:49:12.363Z,22.37
2018-06-11T20:51:44.055Z,24.03
2018-06-11T20:54:14.914Z,23.63
2018-06-11T20:57:02.245Z,26.90
2018-06-11T20:59:34.003Z,26.40
2018-06-11T21:02:06.568Z,21.97
2018-06-11T21:04:33.944Z,22.50
2018-06-11T21:07:03.299Z,18.50
2018-06-11T21:09:33.828Z,16.87
2018-06-11T21:12:00.829Z,19.67
2018-06-11T21:14:27.854Z,19.70
2018-06-11T21:16:54.858Z,16.27
2018-06-11T21:19:21.849Z,17.43
2018-06-11T21:21:48.901Z,19.20
2018-06-11T21:24:15.907Z,19.87
2018-06-11T21:26:42.922Z,17.50
2018-06-11T21:29:09.953Z,18.70
2018-06-11T21:31:37.185Z,18.37
2018-06-11T21:34:04.207Z,24.83
2018-06-11T21:36:31.586Z,20.93
2018-06-11T21:38:58.578Z,17.47
2018-06-11T21:41:25.593Z,18.67
2018-06-11T21:43:52.587Z,17.53
2018-06-11T21:46:19.597Z,16.77
2018-06-11T21:48:46.602Z,19.60
2018-06-11T21:51:13.610Z,15.77
2018-06-11T21:53:40.610Z,18.23
2018-06-11T21:56:07.898Z,15.77
2018-06-11T21:58:34.914Z,18.00
2018-06-11T22:01:01.963Z,17.83
2018-06-11T22:03:28.968Z,17.83
2018-06-11T22:05:56.171Z,23.27
2018-06-11T22:08:23.199Z,18.27
2018-06-11T22:10:50.207Z,17.50
2018-06-11T22:13:17.198Z,17.73
2018-06-11T22:15:44.867Z,21.50
2018-06-11T22:18:11.865Z,24.67
2018-06-11T22:20:38.846Z,21.10
2018-06-11T22:23:06.009Z,17.33
2018-06-11T22:25:33.001Z,17.17
2018-06-11T22:28:00.030Z,15.27
2018-06-11T22:30:27.096Z,18.07
2018-06-11T22:32:54.041Z,14.93
2018-06-11T22:35:21.033Z,15.90
2018-06-11T22:37:48.009Z,15.93
2018-06-11T22:40:15.001Z,15.30
2018-06-11T22:42:42.781Z,16.23
2018-06-11T22:45:09.763Z,15.60
2018-06-11T22:47:36.750Z,15.27
2018-06-11T22:50:03.769Z,17.17
2018-06-11T22:52:34.041Z,19.00
2018-06-11T22:55:03.888Z,18.33
2018-06-11T22:57:35.250Z,18.57
2018-06-11T23:00:02.278Z,22.30
2018-06-11T23:02:29.275Z,21.40
2018-06-11T23:04:56.266Z,21.73
2018-06-11T23:07:23.290Z,23.90
2018-06-11T23:09:50.290Z,26.80
2018-06-11T23:12:17.302Z,25.17
2018-06-11T23:14:44.318Z,30.13
2018-06-11T23:17:11.318Z,28.23
2018-06-11T23:19:38.347Z,31.00
2018-06-11T23:22:05.358Z,29.83
2018-06-11T23:24:32.358Z,31.60
2018-06-11T23:26:59.386Z,28.33
2018-06-11T23:29:26.394Z,26.37
2018-06-11T23:31:53.401Z,30.00
2018-06-11T23:43:01.480Z,32.63
2018-06-11T23:45:28.485Z,31.73
2018-06-11T23:47:55.477Z,33.13
2018-06-11T23:50:22.477Z,33.00
2018-06-11T23:52:49.496Z,34.57
2018-06-11T23:55:16.486Z,32.83
2018-06-11T23:57:43.460Z,34.73
